Terminal Aerodrome Forecast
Issued by NWS

Home | Current Version | Previous Version | Text Only | Print | Product List | Glossary On
Versions: 1 2 3 4 5 6 7 8 9 10 11 12 13 14 15 16 17
000
FTUS43 KIWX 251100
TAFSBN
TAF
KSBN 251120Z 2512/2612 20004KT P6SM SCT250
     FM251400 20010KT P6SM FEW045 BKN250
     FM260000 18008KT P6SM BKN080 PROB30 2605/2609 -TSRA BKN040CB=

USA.gov is the U.S. government's official web portal to all federal, state and local government web resources and services.